sensor_id;sensor_type;location;lat;lon;timestamp;P1;durP1;ratioP1;P2;durP2;ratioP2
58657;SDS011;44428;45.630;13.786;2022-12-18T00:00:43;9.07;;;5.00;;
58657;SDS011;44428;45.630;13.786;2022-12-18T00:03:09;5.72;;;3.85;;
58657;SDS011;44428;45.630;13.786;2022-12-18T00:05:35;9.20;;;5.38;;
58657;SDS011;44428;45.630;13.786;2022-12-18T00:08:01;7.60;;;4.75;;
58657;SDS011;44428;45.630;13.786;2022-12-18T00:10:27;9.38;;;5.22;;
58657;SDS011;44428;45.630;13.786;2022-12-18T00:12:54;7.53;;;4.22;;
58657;SDS011;44428;45.630;13.786;2022-12-18T00:15:19;8.43;;;5.50;;
58657;SDS011;44428;45.630;13.786;2022-12-18T00:17:45;8.77;;;5.43;;
58657;SDS011;44428;45.630;13.786;2022-12-18T00:20:11;6.97;;;4.45;;
58657;SDS011;44428;45.630;13.786;2022-12-18T00:22:37;9.45;;;4.95;;
58657;SDS011;44428;45.630;13.786;2022-12-18T00:25:02;8.23;;;5.40;;
58657;SDS011;44428;45.630;13.786;2022-12-18T00:27:29;9.00;;;5.07;;
58657;SDS011;44428;45.630;13.786;2022-12-18T00:29:54;8.65;;;5.75;;
58657;SDS011;44428;45.630;13.786;2022-12-18T00:32:20;7.00;;;4.13;;
58657;SDS011;44428;45.630;13.786;2022-12-18T00:34:46;9.65;;;5.15;;
58657;SDS011;44428;45.630;13.786;2022-12-18T00:37:11;8.63;;;5.45;;
58657;SDS011;44428;45.630;13.786;2022-12-18T00:39:37;8.32;;;4.97;;
58657;SDS011;44428;45.630;13.786;2022-12-18T00:42:02;8.73;;;5.43;;
58657;SDS011;44428;45.630;13.786;2022-12-18T00:44:47;7.80;;;4.78;;
58657;SDS011;44428;45.630;13.786;2022-12-18T00:47:12;8.48;;;5.47;;
58657;SDS011;44428;45.630;13.786;2022-12-18T00:49:38;8.30;;;4.65;;
58657;SDS011;44428;45.630;13.786;2022-12-18T00:52:04;9.63;;;5.88;;
58657;SDS011;44428;45.630;13.786;2022-12-18T00:54:29;8.93;;;5.45;;
58657;SDS011;44428;45.630;13.786;2022-12-18T00:56:55;8.88;;;5.28;;
58657;SDS011;44428;45.630;13.786;2022-12-18T00:59:21;10.13;;;5.72;;
58657;SDS011;44428;45.630;13.786;2022-12-18T01:01:47;9.23;;;5.25;;
58657;SDS011;44428;45.630;13.786;2022-12-18T01:04:13;8.10;;;4.68;;
58657;SDS011;44428;45.630;13.786;2022-12-18T01:06:39;9.23;;;5.93;;
58657;SDS011;44428;45.630;13.786;2022-12-18T01:09:05;9.25;;;5.30;;
58657;SDS011;44428;45.630;13.786;2022-12-18T01:11:31;9.75;;;6.07;;
58657;SDS011;44428;45.630;13.786;2022-12-18T01:13:57;10.15;;;6.15;;
58657;SDS011;44428;45.630;13.786;2022-12-18T01:16:22;11.25;;;6.38;;
58657;SDS011;44428;45.630;13.786;2022-12-18T01:18:51;9.65;;;5.72;;
58657;SDS011;44428;45.630;13.786;2022-12-18T01:21:18;7.68;;;5.45;;
58657;SDS011;44428;45.630;13.786;2022-12-18T01:23:44;9.98;;;5.97;;
58657;SDS011;44428;45.630;13.786;2022-12-18T01:26:11;10.73;;;6.57;;
58657;SDS011;44428;45.630;13.786;2022-12-18T01:28:40;9.50;;;6.18;;
58657;SDS011;44428;45.630;13.786;2022-12-18T01:31:14;9.43;;;6.22;;
58657;SDS011;44428;45.630;13.786;2022-12-18T01:33:43;9.55;;;5.72;;
58657;SDS011;44428;45.630;13.786;2022-12-18T01:36:14;8.05;;;5.10;;
58657;SDS011;44428;45.630;13.786;2022-12-18T01:38:51;9.68;;;6.22;;
58657;SDS011;44428;45.630;13.786;2022-12-18T01:41:18;8.90;;;4.97;;
58657;SDS011;44428;45.630;13.786;2022-12-18T01:43:48;9.48;;;5.80;;
58657;SDS011;44428;45.630;13.786;2022-12-18T01:46:14;9.98;;;5.15;;
58657;SDS011;44428;45.630;13.786;2022-12-18T01:48:40;8.65;;;5.97;;
58657;SDS011;44428;45.630;13.786;2022-12-18T01:51:08;10.75;;;5.80;;
58657;SDS011;44428;45.630;13.786;2022-12-18T01:53:35;9.57;;;5.53;;
58657;SDS011;44428;45.630;13.786;2022-12-18T01:56:02;9.70;;;6.22;;
58657;SDS011;44428;45.630;13.786;2022-12-18T02:01:00;9.85;;;5.50;;
58657;SDS011;44428;45.630;13.786;2022-12-18T02:03:26;9.02;;;5.90;;
58657;SDS011;44428;45.630;13.786;2022-12-18T02:05:57;10.30;;;5.65;;
58657;SDS011;44428;45.630;13.786;2022-12-18T02:11:07;11.05;;;6.50;;
58657;SDS011;44428;45.630;13.786;2022-12-18T02:14:04;9.98;;;6.30;;
58657;SDS011;44428;45.630;13.786;2022-12-18T02:19:16;9.88;;;5.95;;
58657;SDS011;44428;45.630;13.786;2022-12-18T02:21:57;10.52;;;6.13;;
58657;SDS011;44428;45.630;13.786;2022-12-18T02:24:45;9.90;;;5.53;;
58657;SDS011;44428;45.630;13.786;2022-12-18T02:27:36;10.13;;;5.93;;
58657;SDS011;44428;45.630;13.786;2022-12-18T02:30:05;10.40;;;5.97;;
58657;SDS011;44428;45.630;13.786;2022-12-18T02:32:34;12.10;;;6.65;;
58657;SDS011;44428;45.630;13.786;2022-12-18T02:35:04;13.45;;;7.43;;
58657;SDS011;44428;45.630;13.786;2022-12-18T02:37:33;9.50;;;5.20;;
58657;SDS011;44428;45.630;13.786;2022-12-18T02:40:04;12.32;;;7.20;;
58657;SDS011;44428;45.630;13.786;2022-12-18T02:42:32;9.48;;;5.78;;
58657;SDS011;44428;45.630;13.786;2022-12-18T02:44:58;10.73;;;6.13;;
58657;SDS011;44428;45.630;13.786;2022-12-18T02:47:27;11.63;;;7.05;;
58657;SDS011;44428;45.630;13.786;2022-12-18T02:52:28;12.55;;;6.68;;
58657;SDS011;44428;45.630;13.786;2022-12-18T02:57:50;10.65;;;6.57;;
58657;SDS011;44428;45.630;13.786;2022-12-18T03:06:00;12.43;;;7.53;;
58657;SDS011;44428;45.630;13.786;2022-12-18T03:08:32;12.05;;;7.72;;
58657;SDS011;44428;45.630;13.786;2022-12-18T03:11:02;10.32;;;6.15;;
58657;SDS011;44428;45.630;13.786;2022-12-18T03:16:06;11.55;;;7.40;;
58657;SDS011;44428;45.630;13.786;2022-12-18T03:18:42;10.48;;;6.60;;
58657;SDS011;44428;45.630;13.786;2022-12-18T03:21:13;11.90;;;6.57;;
58657;SDS011;44428;45.630;13.786;2022-12-18T03:23:44;11.85;;;7.68;;
58657;SDS011;44428;45.630;13.786;2022-12-18T03:28:46;11.48;;;6.43;;
58657;SDS011;44428;45.630;13.786;2022-12-18T03:31:17;12.40;;;7.65;;
58657;SDS011;44428;45.630;13.786;2022-12-18T03:33:50;12.65;;;7.72;;
58657;SDS011;44428;45.630;13.786;2022-12-18T03:36:23;11.00;;;7.32;;
58657;SDS011;44428;45.630;13.786;2022-12-18T03:38:50;12.35;;;7.30;;
58657;SDS011;44428;45.630;13.786;2022-12-18T03:41:31;11.35;;;7.00;;
58657;SDS011;44428;45.630;13.786;2022-12-18T03:52:03;10.38;;;7.13;;
58657;SDS011;44428;45.630;13.786;2022-12-18T03:54:32;13.10;;;7.32;;
58657;SDS011;44428;45.630;13.786;2022-12-18T03:57:09;13.80;;;7.82;;
58657;SDS011;44428;45.630;13.786;2022-12-18T03:59:40;12.63;;;7.47;;
58657;SDS011;44428;45.630;13.786;2022-12-18T04:02:08;11.20;;;6.43;;
58657;SDS011;44428;45.630;13.786;2022-12-18T04:04:36;13.38;;;7.78;;
58657;SDS011;44428;45.630;13.786;2022-12-18T04:07:03;12.13;;;7.57;;
58657;SDS011;44428;45.630;13.786;2022-12-18T04:09:32;10.75;;;7.18;;
58657;SDS011;44428;45.630;13.786;2022-12-18T04:11:59;14.40;;;8.27;;
58657;SDS011;44428;45.630;13.786;2022-12-18T04:14:25;12.10;;;7.22;;
58657;SDS011;44428;45.630;13.786;2022-12-18T04:16:54;14.95;;;8.60;;
58657;SDS011;44428;45.630;13.786;2022-12-18T04:19:25;12.77;;;7.78;;
58657;SDS011;44428;45.630;13.786;2022-12-18T04:21:52;13.15;;;8.18;;
58657;SDS011;44428;45.630;13.786;2022-12-18T04:24:17;14.00;;;8.20;;
58657;SDS011;44428;45.630;13.786;2022-12-18T04:26:52;12.43;;;6.82;;
58657;SDS011;44428;45.630;13.786;2022-12-18T04:29:24;12.13;;;7.68;;
58657;SDS011;44428;45.630;13.786;2022-12-18T04:31:50;12.60;;;8.13;;
58657;SDS011;44428;45.630;13.786;2022-12-18T04:34:16;14.73;;;8.93;;
58657;SDS011;44428;45.630;13.786;2022-12-18T04:36:48;13.05;;;7.50;;
58657;SDS011;44428;45.630;13.786;2022-12-18T04:39:14;15.45;;;8.32;;
58657;SDS011;44428;45.630;13.786;2022-12-18T04:41:43;16.33;;;9.25;;
58657;SDS011;44428;45.630;13.786;2022-12-18T04:44:11;16.90;;;8.80;;
58657;SDS011;44428;45.630;13.786;2022-12-18T04:46:37;15.43;;;8.57;;
58657;SDS011;44428;45.630;13.786;2022-12-18T04:49:03;13.23;;;8.40;;
58657;SDS011;44428;45.630;13.786;2022-12-18T04:51:29;13.18;;;7.28;;
58657;SDS011;44428;45.630;13.786;2022-12-18T04:53:54;15.40;;;9.48;;
58657;SDS011;44428;45.630;13.786;2022-12-18T04:56:20;13.90;;;8.43;;
58657;SDS011;44428;45.630;13.786;2022-12-18T04:58:46;15.63;;;8.50;;
58657;SDS011;44428;45.630;13.786;2022-12-18T05:01:12;15.05;;;8.70;;
58657;SDS011;44428;45.630;13.786;2022-12-18T05:03:39;15.70;;;8.98;;
58657;SDS011;44428;45.630;13.786;2022-12-18T05:06:05;13.85;;;7.88;;
58657;SDS011;44428;45.630;13.786;2022-12-18T05:08:31;14.55;;;9.48;;
58657;SDS011;44428;45.630;13.786;2022-12-18T05:11:18;13.23;;;8.50;;
58657;SDS011;44428;45.630;13.786;2022-12-18T05:13:43;14.80;;;8.82;;
58657;SDS011;44428;45.630;13.786;2022-12-18T05:16:10;15.05;;;9.20;;
58657;SDS011;44428;45.630;13.786;2022-12-18T05:18:36;12.65;;;8.38;;
58657;SDS011;44428;45.630;13.786;2022-12-18T05:21:02;14.60;;;9.02;;
58657;SDS011;44428;45.630;13.786;2022-12-18T05:23:28;13.98;;;8.32;;
58657;SDS011;44428;45.630;13.786;2022-12-18T05:25:54;16.27;;;8.98;;
58657;SDS011;44428;45.630;13.786;2022-12-18T05:28:25;12.50;;;7.60;;
58657;SDS011;44428;45.630;13.786;2022-12-18T05:30:53;13.52;;;8.43;;
58657;SDS011;44428;45.630;13.786;2022-12-18T05:33:20;14.98;;;9.10;;
58657;SDS011;44428;45.630;13.786;2022-12-18T05:35:51;14.60;;;9.13;;
58657;SDS011;44428;45.630;13.786;2022-12-18T05:38:18;14.50;;;8.93;;
58657;SDS011;44428;45.630;13.786;2022-12-18T05:40:45;16.40;;;9.45;;
58657;SDS011;44428;45.630;13.786;2022-12-18T05:43:11;13.52;;;9.32;;
58657;SDS011;44428;45.630;13.786;2022-12-18T05:45:37;13.45;;;8.15;;
58657;SDS011;44428;45.630;13.786;2022-12-18T05:48:04;14.60;;;9.38;;
58657;SDS011;44428;45.630;13.786;2022-12-18T05:50:30;14.38;;;9.38;;
58657;SDS011;44428;45.630;13.786;2022-12-18T05:53:00;15.18;;;9.43;;
58657;SDS011;44428;45.630;13.786;2022-12-18T05:55:26;16.25;;;9.43;;
58657;SDS011;44428;45.630;13.786;2022-12-18T05:57:51;14.95;;;9.57;;
58657;SDS011;44428;45.630;13.786;2022-12-18T06:00:17;15.77;;;9.95;;
58657;SDS011;44428;45.630;13.786;2022-12-18T06:02:46;15.85;;;9.40;;
58657;SDS011;44428;45.630;13.786;2022-12-18T06:05:12;14.93;;;8.98;;
58657;SDS011;44428;45.630;13.786;2022-12-18T06:07:39;16.15;;;10.27;;
58657;SDS011;44428;45.630;13.786;2022-12-18T06:10:05;16.40;;;10.02;;
58657;SDS011;44428;45.630;13.786;2022-12-18T06:12:31;14.73;;;9.85;;
58657;SDS011;44428;45.630;13.786;2022-12-18T06:14:59;16.92;;;9.07;;
58657;SDS011;44428;45.630;13.786;2022-12-18T06:17:31;15.75;;;10.20;;
58657;SDS011;44428;45.630;13.786;2022-12-18T06:19:57;14.85;;;9.85;;
58657;SDS011;44428;45.630;13.786;2022-12-18T06:22:23;17.20;;;10.35;;
58657;SDS011;44428;45.630;13.786;2022-12-18T06:24:49;15.80;;;9.35;;
58657;SDS011;44428;45.630;13.786;2022-12-18T06:27:15;17.08;;;9.90;;
58657;SDS011;44428;45.630;13.786;2022-12-18T06:29:41;14.10;;;9.18;;
58657;SDS011;44428;45.630;13.786;2022-12-18T06:32:07;15.77;;;9.55;;
58657;SDS011;44428;45.630;13.786;2022-12-18T06:34:33;15.27;;;9.95;;
58657;SDS011;44428;45.630;13.786;2022-12-18T06:36:59;16.23;;;9.65;;
58657;SDS011;44428;45.630;13.786;2022-12-18T06:39:26;19.75;;;10.30;;
58657;SDS011;44428;45.630;13.786;2022-12-18T06:41:52;14.77;;;9.65;;
58657;SDS011;44428;45.630;13.786;2022-12-18T06:44:18;16.92;;;10.32;;
58657;SDS011;44428;45.630;13.786;2022-12-18T06:46:44;17.02;;;10.52;;
58657;SDS011;44428;45.630;13.786;2022-12-18T06:49:10;20.35;;;11.32;;
58657;SDS011;44428;45.630;13.786;2022-12-18T06:51:36;19.80;;;10.48;;
58657;SDS011;44428;45.630;13.786;2022-12-18T06:54:02;17.95;;;11.20;;
58657;SDS011;44428;45.630;13.786;2022-12-18T06:56:28;17.08;;;10.85;;
58657;SDS011;44428;45.630;13.786;2022-12-18T06:58:53;16.95;;;10.50;;
58657;SDS011;44428;45.630;13.786;2022-12-18T07:01:20;18.45;;;11.30;;
58657;SDS011;44428;45.630;13.786;2022-12-18T07:03:47;18.73;;;12.00;;
58657;SDS011;44428;45.630;13.786;2022-12-18T07:06:18;18.05;;;11.57;;
58657;SDS011;44428;45.630;13.786;2022-12-18T07:08:44;18.60;;;12.20;;
58657;SDS011;44428;45.630;13.786;2022-12-18T07:11:11;17.42;;;11.07;;
58657;SDS011;44428;45.630;13.786;2022-12-18T07:13:37;17.13;;;11.80;;
58657;SDS011;44428;45.630;13.786;2022-12-18T07:16:07;19.27;;;10.60;;
58657;SDS011;44428;45.630;13.786;2022-12-18T07:18:34;17.40;;;10.20;;
58657;SDS011;44428;45.630;13.786;2022-12-18T07:21:04;18.83;;;10.18;;
58657;SDS011;44428;45.630;13.786;2022-12-18T07:23:31;15.93;;;9.98;;
58657;SDS011;44428;45.630;13.786;2022-12-18T07:26:02;16.75;;;10.40;;
58657;SDS011;44428;45.630;13.786;2022-12-18T07:28:29;14.75;;;9.63;;
58657;SDS011;44428;45.630;13.786;2022-12-18T07:30:55;14.77;;;9.55;;
58657;SDS011;44428;45.630;13.786;2022-12-18T07:33:21;14.80;;;8.75;;
58657;SDS011;44428;45.630;13.786;2022-12-18T07:35:46;14.52;;;8.60;;
58657;SDS011;44428;45.630;13.786;2022-12-18T07:38:12;13.65;;;8.07;;
58657;SDS011;44428;45.630;13.786;2022-12-18T07:40:38;14.32;;;8.98;;
58657;SDS011;44428;45.630;13.786;2022-12-18T07:43:03;13.68;;;8.73;;
58657;SDS011;44428;45.630;13.786;2022-12-18T07:45:29;10.88;;;7.07;;
58657;SDS011;44428;45.630;13.786;2022-12-18T07:47:55;12.20;;;8.10;;
58657;SDS011;44428;45.630;13.786;2022-12-18T07:50:20;14.52;;;8.70;;
58657;SDS011;44428;45.630;13.786;2022-12-18T07:52:46;12.75;;;7.13;;
58657;SDS011;44428;45.630;13.786;2022-12-18T07:55:12;12.93;;;7.43;;
58657;SDS011;44428;45.630;13.786;2022-12-18T07:57:37;13.82;;;7.95;;
58657;SDS011;44428;45.630;13.786;2022-12-18T08:00:03;12.15;;;7.00;;
58657;SDS011;44428;45.630;13.786;2022-12-18T08:02:37;11.90;;;7.53;;
58657;SDS011;44428;45.630;13.786;2022-12-18T08:05:03;11.48;;;7.25;;
58657;SDS011;44428;45.630;13.786;2022-12-18T08:07:29;11.55;;;6.85;;
58657;SDS011;44428;45.630;13.786;2022-12-18T08:09:55;12.32;;;7.88;;
58657;SDS011;44428;45.630;13.786;2022-12-18T08:12:20;10.82;;;7.18;;
58657;SDS011;44428;45.630;13.786;2022-12-18T08:14:46;11.85;;;7.28;;
58657;SDS011;44428;45.630;13.786;2022-12-18T08:17:12;11.20;;;6.93;;
58657;SDS011;44428;45.630;13.786;2022-12-18T08:19:37;12.88;;;7.22;;
58657;SDS011;44428;45.630;13.786;2022-12-18T08:22:03;12.88;;;7.10;;
58657;SDS011;44428;45.630;13.786;2022-12-18T08:24:29;11.65;;;6.80;;
58657;SDS011;44428;45.630;13.786;2022-12-18T08:26:54;12.25;;;7.28;;
58657;SDS011;44428;45.630;13.786;2022-12-18T08:29:22;11.55;;;7.72;;
58657;SDS011;44428;45.630;13.786;2022-12-18T08:31:48;12.60;;;7.65;;
58657;SDS011;44428;45.630;13.786;2022-12-18T08:34:14;12.88;;;8.10;;
58657;SDS011;44428;45.630;13.786;2022-12-18T08:36:40;12.25;;;7.20;;
58657;SDS011;44428;45.630;13.786;2022-12-18T08:39:05;13.60;;;7.47;;
58657;SDS011;44428;45.630;13.786;2022-12-18T08:41:31;12.20;;;7.38;;
58657;SDS011;44428;45.630;13.786;2022-12-18T08:43:57;11.20;;;6.72;;
58657;SDS011;44428;45.630;13.786;2022-12-18T08:46:41;13.75;;;8.23;;
58657;SDS011;44428;45.630;13.786;2022-12-18T08:49:08;12.95;;;8.20;;
58657;SDS011;44428;45.630;13.786;2022-12-18T08:51:35;9.60;;;5.50;;
58657;SDS011;44428;45.630;13.786;2022-12-18T08:54:01;12.73;;;7.70;;
58657;SDS011;44428;45.630;13.786;2022-12-18T08:56:27;10.77;;;6.43;;
58657;SDS011;44428;45.630;13.786;2022-12-18T08:58:55;12.30;;;7.65;;
58657;SDS011;44428;45.630;13.786;2022-12-18T09:01:21;12.10;;;7.38;;
58657;SDS011;44428;45.630;13.786;2022-12-18T09:03:48;13.80;;;7.45;;
58657;SDS011;44428;45.630;13.786;2022-12-18T09:06:15;12.93;;;7.63;;
58657;SDS011;44428;45.630;13.786;2022-12-18T09:08:45;13.40;;;8.48;;
58657;SDS011;44428;45.630;13.786;2022-12-18T09:11:13;14.45;;;9.68;;
58657;SDS011;44428;45.630;13.786;2022-12-18T09:13:40;13.02;;;7.82;;
58657;SDS011;44428;45.630;13.786;2022-12-18T09:16:06;15.48;;;9.13;;
58657;SDS011;44428;45.630;13.786;2022-12-18T09:18:32;10.00;;;6.22;;
58657;SDS011;44428;45.630;13.786;2022-12-18T09:20:57;12.00;;;7.35;;
58657;SDS011;44428;45.630;13.786;2022-12-18T09:23:23;11.18;;;7.72;;
58657;SDS011;44428;45.630;13.786;2022-12-18T09:25:49;14.32;;;8.55;;
58657;SDS011;44428;45.630;13.786;2022-12-18T09:28:16;12.45;;;7.43;;
58657;SDS011;44428;45.630;13.786;2022-12-18T09:30:44;12.20;;;7.82;;
58657;SDS011;44428;45.630;13.786;2022-12-18T09:33:11;12.98;;;8.00;;
58657;SDS011;44428;45.630;13.786;2022-12-18T09:35:40;13.18;;;8.13;;
58657;SDS011;44428;45.630;13.786;2022-12-18T09:38:08;11.77;;;8.15;;
58657;SDS011;44428;45.630;13.786;2022-12-18T09:40:45;11.32;;;7.28;;
58657;SDS011;44428;45.630;13.786;2022-12-18T09:43:21;12.23;;;7.47;;
58657;SDS011;44428;45.630;13.786;2022-12-18T09:45:53;9.90;;;6.95;;
58657;SDS011;44428;45.630;13.786;2022-12-18T09:48:29;10.20;;;7.03;;
58657;SDS011;44428;45.630;13.786;2022-12-18T09:50:59;13.13;;;8.77;;
58657;SDS011;44428;45.630;13.786;2022-12-18T09:53:50;11.27;;;7.90;;
58657;SDS011;44428;45.630;13.786;2022-12-18T09:56:20;12.25;;;8.85;;
58657;SDS011;44428;45.630;13.786;2022-12-18T09:58:58;11.45;;;7.70;;
58657;SDS011;44428;45.630;13.786;2022-12-18T10:01:26;12.48;;;8.80;;
58657;SDS011;44428;45.630;13.786;2022-12-18T10:03:53;11.63;;;8.82;;
58657;SDS011;44428;45.630;13.786;2022-12-18T10:09:15;11.32;;;8.50;;
58657;SDS011;44428;45.630;13.786;2022-12-18T10:11:42;12.00;;;8.95;;
58657;SDS011;44428;45.630;13.786;2022-12-18T10:14:27;11.20;;;8.27;;
58657;SDS011;44428;45.630;13.786;2022-12-18T10:17:02;10.95;;;7.97;;
58657;SDS011;44428;45.630;13.786;2022-12-18T10:19:45;10.95;;;8.35;;
58657;SDS011;44428;45.630;13.786;2022-12-18T10:25:09;10.32;;;8.45;;
58657;SDS011;44428;45.630;13.786;2022-12-18T10:27:40;10.80;;;8.30;;
58657;SDS011;44428;45.630;13.786;2022-12-18T10:30:16;11.32;;;8.60;;
58657;SDS011;44428;45.630;13.786;2022-12-18T10:32:44;11.52;;;8.70;;
58657;SDS011;44428;45.630;13.786;2022-12-18T10:35:20;10.57;;;7.47;;
58657;SDS011;44428;45.630;13.786;2022-12-18T10:38:05;11.38;;;8.50;;
58657;SDS011;44428;45.630;13.786;2022-12-18T10:40:48;10.68;;;7.90;;
58657;SDS011;44428;45.630;13.786;2022-12-18T10:43:16;10.32;;;8.57;;
58657;SDS011;44428;45.630;13.786;2022-12-18T10:45:57;13.77;;;9.70;;
58657;SDS011;44428;45.630;13.786;2022-12-18T10:48:23;10.85;;;8.73;;
58657;SDS011;44428;45.630;13.786;2022-12-18T10:50:49;11.95;;;9.63;;
58657;SDS011;44428;45.630;13.786;2022-12-18T10:53:23;12.65;;;9.85;;
58657;SDS011;44428;45.630;13.786;2022-12-18T10:55:51;12.35;;;9.27;;
58657;SDS011;44428;45.630;13.786;2022-12-18T10:58:35;12.23;;;9.32;;
58657;SDS011;44428;45.630;13.786;2022-12-18T11:03:36;11.65;;;9.00;;
58657;SDS011;44428;45.630;13.786;2022-12-18T11:06:24;11.02;;;8.93;;
58657;SDS011;44428;45.630;13.786;2022-12-18T11:09:01;12.25;;;9.75;;
58657;SDS011;44428;45.630;13.786;2022-12-18T11:11:28;11.73;;;9.38;;
58657;SDS011;44428;45.630;13.786;2022-12-18T11:13:58;12.35;;;9.93;;
58657;SDS011;44428;45.630;13.786;2022-12-18T11:16:26;12.15;;;9.75;;
58657;SDS011;44428;45.630;13.786;2022-12-18T11:18:53;10.77;;;9.13;;
58657;SDS011;44428;45.630;13.786;2022-12-18T11:21:19;12.65;;;10.43;;
58657;SDS011;44428;45.630;13.786;2022-12-18T11:23:51;12.13;;;10.07;;
58657;SDS011;44428;45.630;13.786;2022-12-18T11:26:17;10.98;;;8.88;;
58657;SDS011;44428;45.630;13.786;2022-12-18T11:28:46;12.43;;;9.98;;
58657;SDS011;44428;45.630;13.786;2022-12-18T11:33:44;10.98;;;9.25;;
58657;SDS011;44428;45.630;13.786;2022-12-18T11:36:15;13.20;;;9.07;;
58657;SDS011;44428;45.630;13.786;2022-12-18T11:38:43;12.07;;;9.20;;
58657;SDS011;44428;45.630;13.786;2022-12-18T11:44:11;12.10;;;9.02;;
58657;SDS011;44428;45.630;13.786;2022-12-18T11:46:43;12.05;;;8.77;;
58657;SDS011;44428;45.630;13.786;2022-12-18T11:49:17;10.52;;;8.75;;
58657;SDS011;44428;45.630;13.786;2022-12-18T11:52:09;10.18;;;8.50;;
58657;SDS011;44428;45.630;13.786;2022-12-18T11:54:32;11.10;;;8.57;;
58657;SDS011;44428;45.630;13.786;2022-12-18T11:57:00;11.05;;;8.13;;
58657;SDS011;44428;45.630;13.786;2022-12-18T11:59:53;10.23;;;8.35;;
58657;SDS011;44428;45.630;13.786;2022-12-18T12:05:56;11.18;;;8.10;;
58657;SDS011;44428;45.630;13.786;2022-12-18T12:10:47;10.82;;;8.25;;
58657;SDS011;44428;45.630;13.786;2022-12-18T12:23:58;11.02;;;8.07;;
58657;SDS011;44428;45.630;13.786;2022-12-18T12:41:00;9.75;;;7.70;;
58657;SDS011;44428;45.630;13.786;2022-12-18T12:43:40;11.27;;;8.43;;
58657;SDS011;44428;45.630;13.786;2022-12-18T12:46:11;10.23;;;7.80;;
58657;SDS011;44428;45.630;13.786;2022-12-18T12:48:43;9.13;;;7.60;;
58657;SDS011;44428;45.630;13.786;2022-12-18T12:51:16;11.02;;;8.32;;
58657;SDS011;44428;45.630;13.786;2022-12-18T12:53:45;9.48;;;7.70;;
58657;SDS011;44428;45.630;13.786;2022-12-18T12:56:12;11.02;;;8.18;;
58657;SDS011;44428;45.630;13.786;2022-12-18T13:07:12;9.38;;;7.78;;
58657;SDS011;44428;45.630;13.786;2022-12-18T13:20:38;10.63;;;7.97;;
58657;SDS011;44428;45.630;13.786;2022-12-18T13:25:56;10.43;;;7.63;;
58657;SDS011;44428;45.630;13.786;2022-12-18T13:29:08;10.20;;;7.57;;
58657;SDS011;44428;45.630;13.786;2022-12-18T13:34:22;11.30;;;8.20;;
58657;SDS011;44428;45.630;13.786;2022-12-18T13:36:50;11.15;;;8.23;;
58657;SDS011;44428;45.630;13.786;2022-12-18T13:41:50;10.70;;;8.32;;
58657;SDS011;44428;45.630;13.786;2022-12-18T13:44:58;11.25;;;8.68;;
58657;SDS011;44428;45.630;13.786;2022-12-18T13:47:32;10.57;;;8.60;;
58657;SDS011;44428;45.630;13.786;2022-12-18T13:50:00;9.63;;;8.02;;
58657;SDS011;44428;45.630;13.786;2022-12-18T13:52:35;11.43;;;7.50;;
58657;SDS011;44428;45.630;13.786;2022-12-18T13:55:05;11.65;;;8.68;;
58657;SDS011;44428;45.630;13.786;2022-12-18T13:57:40;10.57;;;7.15;;
58657;SDS011;44428;45.630;13.786;2022-12-18T14:02:50;11.35;;;8.25;;
58657;SDS011;44428;45.630;13.786;2022-12-18T14:05:26;12.07;;;7.80;;
58657;SDS011;44428;45.630;13.786;2022-12-18T14:08:10;11.30;;;7.70;;
58657;SDS011;44428;45.630;13.786;2022-12-18T14:10:43;11.25;;;8.05;;
58657;SDS011;44428;45.630;13.786;2022-12-18T14:13:11;12.02;;;7.55;;
58657;SDS011;44428;45.630;13.786;2022-12-18T14:15:45;10.77;;;7.55;;
58657;SDS011;44428;45.630;13.786;2022-12-18T14:20:55;11.60;;;7.50;;
58657;SDS011;44428;45.630;13.786;2022-12-18T14:26:01;10.25;;;7.57;;
58657;SDS011;44428;45.630;13.786;2022-12-18T14:28:28;11.70;;;7.90;;
58657;SDS011;44428;45.630;13.786;2022-12-18T14:30:55;11.40;;;7.72;;
58657;SDS011;44428;45.630;13.786;2022-12-18T14:35:53;11.07;;;7.85;;
58657;SDS011;44428;45.630;13.786;2022-12-18T14:38:30;11.77;;;8.52;;
58657;SDS011;44428;45.630;13.786;2022-12-18T14:41:02;10.75;;;7.45;;
58657;SDS011;44428;45.630;13.786;2022-12-18T14:43:32;11.05;;;7.10;;
58657;SDS011;44428;45.630;13.786;2022-12-18T14:46:00;12.82;;;7.80;;
58657;SDS011;44428;45.630;13.786;2022-12-18T14:51:03;11.50;;;8.00;;
58657;SDS011;44428;45.630;13.786;2022-12-18T14:54:15;12.50;;;8.77;;
58657;SDS011;44428;45.630;13.786;2022-12-18T14:56:19;13.15;;;8.70;;
58657;SDS011;44428;45.630;13.786;2022-12-18T14:58:48;12.30;;;8.82;;
58657;SDS011;44428;45.630;13.786;2022-12-18T15:03:58;13.45;;;8.60;;
58657;SDS011;44428;45.630;13.786;2022-12-18T15:06:29;13.18;;;9.00;;
58657;SDS011;44428;45.630;13.786;2022-12-18T15:09:20;11.93;;;8.07;;
58657;SDS011;44428;45.630;13.786;2022-12-18T15:11:48;13.32;;;9.35;;
58657;SDS011;44428;45.630;13.786;2022-12-18T15:14:35;12.52;;;8.73;;
58657;SDS011;44428;45.630;13.786;2022-12-18T15:17:06;14.55;;;9.43;;
58657;SDS011;44428;45.630;13.786;2022-12-18T15:19:44;11.93;;;7.88;;
58657;SDS011;44428;45.630;13.786;2022-12-18T15:22:21;13.88;;;8.73;;
58657;SDS011;44428;45.630;13.786;2022-12-18T15:24:47;12.23;;;8.57;;
58657;SDS011;44428;45.630;13.786;2022-12-18T15:27:20;13.52;;;9.02;;
58657;SDS011;44428;45.630;13.786;2022-12-18T15:29:59;13.88;;;8.57;;
58657;SDS011;44428;45.630;13.786;2022-12-18T15:32:34;15.70;;;9.57;;
58657;SDS011;44428;45.630;13.786;2022-12-18T15:35:11;12.20;;;8.18;;
58657;SDS011;44428;45.630;13.786;2022-12-18T15:37:41;13.23;;;8.85;;
58657;SDS011;44428;45.630;13.786;2022-12-18T15:40:08;14.65;;;9.10;;
58657;SDS011;44428;45.630;13.786;2022-12-18T15:42:37;13.98;;;9.20;;
58657;SDS011;44428;45.630;13.786;2022-12-18T15:45:22;13.35;;;8.18;;
58657;SDS011;44428;45.630;13.786;2022-12-18T15:47:48;14.70;;;8.93;;
58657;SDS011;44428;45.630;13.786;2022-12-18T15:50:13;14.85;;;9.00;;
58657;SDS011;44428;45.630;13.786;2022-12-18T15:52:40;12.98;;;8.68;;
58657;SDS011;44428;45.630;13.786;2022-12-18T15:55:12;13.90;;;8.60;;
58657;SDS011;44428;45.630;13.786;2022-12-18T15:57:58;13.52;;;7.97;;
58657;SDS011;44428;45.630;13.786;2022-12-18T16:00:24;12.32;;;8.07;;
58657;SDS011;44428;45.630;13.786;2022-12-18T16:02:50;15.07;;;9.38;;
58657;SDS011;44428;45.630;13.786;2022-12-18T16:05:16;15.05;;;9.02;;
58657;SDS011;44428;45.630;13.786;2022-12-18T16:07:43;13.68;;;8.55;;
58657;SDS011;44428;45.630;13.786;2022-12-18T16:10:10;13.25;;;8.80;;
58657;SDS011;44428;45.630;13.786;2022-12-18T16:12:36;18.70;;;10.50;;
58657;SDS011;44428;45.630;13.786;2022-12-18T16:15:03;20.27;;;11.38;;
58657;SDS011;44428;45.630;13.786;2022-12-18T16:17:30;17.30;;;9.75;;
58657;SDS011;44428;45.630;13.786;2022-12-18T16:19:56;16.10;;;9.77;;
58657;SDS011;44428;45.630;13.786;2022-12-18T16:22:26;15.23;;;9.93;;
58657;SDS011;44428;45.630;13.786;2022-12-18T16:24:54;13.73;;;9.07;;
58657;SDS011;44428;45.630;13.786;2022-12-18T16:27:21;13.77;;;8.65;;
58657;SDS011;44428;45.630;13.786;2022-12-18T16:29:48;15.25;;;8.90;;
58657;SDS011;44428;45.630;13.786;2022-12-18T16:32:14;14.30;;;8.93;;
58657;SDS011;44428;45.630;13.786;2022-12-18T16:34:42;13.80;;;8.27;;
58657;SDS011;44428;45.630;13.786;2022-12-18T16:37:09;15.07;;;8.68;;